Time;durP1;ratioP1;P1;durP2;ratioP2;P2;SDS_P1;SDS_P2;PMS_P1;PMS_P2;Temp;Humidity;BMP_temperature;BMP_pressure;BME280_temperature;BME280_humidity;BME280_pressure;Samples;Min_cycle;Max_cycle;Signal;HPM_P1;HPM_P2
2022/06/24 00:00:10;;;;;;;15.10;6.05;;;24.50;93.80;;;;;;4917104;29;20115;-66
2022/06/24 00:02:46;;;;;;;12.85;5.43;;;24.50;95.30;;;;;;4917306;29;20032;-67
2022/06/24 00:05:13;;;;;;;13.20;6.20;;;24.40;95.90;;;;;;4917341;29;20043;-66
2022/06/24 00:07:50;;;;;;;11.38;6.07;;;24.30;96.70;;;;;;4917427;29;20095;-66
2022/06/24 00:10:21;;;;;;;13.43;6.40;;;24.20;97.50;;;;;;4917253;29;20032;-67
2022/06/24 00:12:49;;;;;;;16.92;6.72;;;24.10;97.80;;;;;;4917328;29;20036;-67
2022/06/24 00:15:22;;;;;;;11.15;6.57;;;24.00;98.90;;;;;;4917180;29;20042;-67
2022/06/24 00:17:48;;;;;;;12.82;7.80;;;23.90;99.70;;;;;;4916807;29;20032;-66
2022/06/24 00:20:19;;;;;;;10.93;6.15;;;23.90;99.90;;;;;;4916619;29;20493;-66
2022/06/24 00:22:47;;;;;;;11.93;6.55;;;23.80;99.90;;;;;;4916840;29;20118;-67
2022/06/24 00:25:18;;;;;;;15.15;7.30;;;23.80;99.90;;;;;;4916826;29;20040;-67
2022/06/24 00:28:08;;;;;;;15.63;7.80;;;23.80;99.90;;;;;;4916574;29;20032;-67
2022/06/24 00:30:49;;;;;;;13.73;7.70;;;23.70;99.90;;;;;;4916484;29;20040;-67
2022/06/24 00:33:19;;;;;;;16.70;8.27;;;23.70;99.90;;;;;;4916737;29;20068;-66
2022/06/24 00:35:56;;;;;;;17.27;7.40;;;23.70;99.90;;;;;;4917106;29;20036;-67
2022/06/24 00:38:30;;;;;;;14.52;8.07;;;23.70;99.90;;;;;;4916563;29;20388;-67
2022/06/24 00:41:04;;;;;;;16.88;8.32;;;23.70;99.90;;;;;;4916641;29;20036;-66
2022/06/24 00:43:38;;;;;;;18.20;9.10;;;23.70;99.90;;;;;;4916736;29;20389;-67
2022/06/24 00:46:14;;;;;;;16.58;7.97;;;23.70;99.90;;;;;;4916335;29;20036;-66
2022/06/24 00:48:47;;;;;;;14.23;8.02;;;23.60;99.90;;;;;;4915547;29;20066;-67
2022/06/24 00:51:14;;;;;;;17.30;8.85;;;23.70;99.90;;;;;;4916424;29;20032;-67
2022/06/24 00:53:47;;;;;;;15.80;8.35;;;23.60;99.90;;;;;;4916249;29;20031;-67
2022/06/24 00:56:15;;;;;;;14.65;8.27;;;23.60;99.90;;;;;;4916137;29;20032;-67
2022/06/24 00:58:57;;;;;;;20.67;9.40;;;23.50;99.90;;;;;;4915964;29;20059;-67
2022/06/24 01:01:35;;;;;;;23.58;10.20;;;23.50;99.90;;;;;;4916138;29;20485;-66
2022/06/24 01:04:03;;;;;;;27.45;11.45;;;23.50;99.90;;;;;;4916275;29;20032;-67
2022/06/24 01:06:30;;;;;;;;;;;23.40;99.90;;;;;;4916338;29;20040;-66
2022/06/24 01:08:57;;;;;;;25.67;11.13;;;23.40;99.90;;;;;;4915836;29;19915;-67
2022/06/24 01:11:28;;;;;;;23.60;11.88;;;23.30;99.90;;;;;;4916350;29;20035;-66
2022/06/24 01:13:55;;;;;;;26.65;12.32;;;23.30;99.90;;;;;;4915982;29;20035;-66
2022/06/24 01:16:22;;;;;;;20.00;11.68;;;23.30;99.90;;;;;;4930347;29;20040;-67
2022/06/24 01:18:52;;;;;;;19.30;11.30;;;23.20;99.90;;;;;;4915786;29;20032;-67
2022/06/24 01:21:35;;;;;;;22.55;11.98;;;23.20;99.90;;;;;;4915845;29;20318;-67
2022/06/24 01:24:12;;;;;;;21.02;11.10;;;23.10;99.90;;;;;;4915987;29;20034;-66
2022/06/24 01:26:40;;;;;;;19.05;10.98;;;23.10;99.90;;;;;;4914510;29;20099;-66
2022/06/24 01:29:06;;;;;;;16.55;10.20;;;23.10;99.90;;;;;;4915519;29;20038;-66
2022/06/24 01:31:33;;;;;;;17.35;8.50;;;23.10;99.90;;;;;;4915592;29;20025;-67
2022/06/24 01:33:59;;;;;;;16.40;9.32;;;23.10;99.90;;;;;;4915659;29;20032;-66
2022/06/24 01:36:25;;;;;;;18.63;10.55;;;23.00;99.90;;;;;;4930283;29;20493;-67
2022/06/24 01:38:51;;;;;;;18.90;9.82;;;23.00;99.90;;;;;;4915413;29;20051;-66
2022/06/24 01:41:18;;;;;;;14.70;9.77;;;22.90;99.90;;;;;;4915570;29;20119;-66
2022/06/24 01:43:44;;;;;;;15.88;10.13;;;22.90;99.90;;;;;;4915432;29;20032;-66
2022/06/24 01:46:13;;;;;;;16.35;9.65;;;22.90;99.90;;;;;;4915244;29;20067;-66
2022/06/24 01:48:40;;;;;;;14.65;9.18;;;22.80;99.90;;;;;;4915033;29;20033;-67
2022/06/24 01:51:08;;;;;;;15.23;8.93;;;22.80;99.90;;;;;;4915305;29;20028;-67
2022/06/24 01:53:34;;;;;;;13.68;8.00;;;22.80;99.90;;;;;;4915400;29;20445;-66
2022/06/24 01:56:00;;;;;;;17.90;8.73;;;22.80;99.90;;;;;;4915246;29;20032;-66
2022/06/24 01:58:26;;;;;;;14.43;8.13;;;22.80;99.90;;;;;;4929613;29;20036;-66
2022/06/24 02:00:52;;;;;;;12.15;7.47;;;22.80;99.90;;;;;;4914905;29;20107;-66
2022/06/24 02:03:18;;;;;;;12.57;7.13;;;22.70;99.90;;;;;;4915079;29;20499;-66
2022/06/24 02:05:46;;;;;;;12.23;7.40;;;22.70;99.90;;;;;;4915025;29;20063;-66
2022/06/24 02:08:13;;;;;;;10.27;6.30;;;22.70;99.90;;;;;;4929620;29;20079;-66
2022/06/24 02:13:26;;;;;;;11.73;6.55;;;22.70;99.90;;;;;;4914883;29;20478;-66
2022/06/24 02:15:58;;;;;;;11.20;6.22;;;22.70;99.90;;;;;;4914796;29;20066;-66
2022/06/24 02:18:26;;;;;;;13.35;6.18;;;22.70;99.90;;;;;;4915013;29;20474;-66
2022/06/24 02:20:53;;;;;;;9.90;5.80;;;22.70;99.90;;;;;;4914914;29;20080;-66
2022/06/24 02:23:21;;;;;;;10.73;6.20;;;22.70;99.90;;;;;;4914895;29;20070;-66
2022/06/24 02:25:50;;;;;;;11.10;6.28;;;22.70;99.90;;;;;;4915345;29;20033;-66
2022/06/24 02:28:17;;;;;;;11.55;6.10;;;22.70;99.90;;;;;;4915095;29;20425;-66
2022/06/24 02:30:44;;;;;;;11.05;6.32;;;22.70;99.90;;;;;;4914628;29;20027;-66
2022/06/24 02:33:11;;;;;;;10.50;6.35;;;22.70;99.90;;;;;;4914956;29;20526;-66
2022/06/24 02:35:39;;;;;;;11.20;5.65;;;22.70;99.90;;;;;;4914691;29;20411;-66
2022/06/24 02:38:05;;;;;;;9.95;5.38;;;22.70;99.90;;;;;;4914875;29;20025;-66
2022/06/24 02:40:52;;;;;;;10.07;5.35;;;22.70;99.90;;;;;;4915180;29;20131;-66
2022/06/24 02:43:28;;;;;;;11.68;6.00;;;22.60;99.90;;;;;;4929591;29;20116;-66
2022/06/24 02:46:00;;;;;;;11.73;6.28;;;22.60;99.90;;;;;;4913388;29;20100;-67
2022/06/24 02:48:27;;;;;;;11.15;6.05;;;22.60;99.90;;;;;;4914716;29;20036;-66
2022/06/24 02:50:55;;;;;;;13.30;6.10;;;22.60;99.90;;;;;;4914664;29;20493;-66
2022/06/24 02:53:22;;;;;;;;;;;22.60;99.90;;;;;;4914996;29;20556;-66
2022/06/24 02:55:50;;;;;;;11.05;5.75;;;22.60;99.90;;;;;;4914835;29;19921;-67
2022/06/24 02:58:16;;;;;;;9.27;5.43;;;22.60;99.90;;;;;;4929051;29;20064;-67
2022/06/24 03:00:43;;;;;;;10.30;5.45;;;22.60;99.90;;;;;;4914547;29;20388;-66
2022/06/24 03:03:14;;;;;;;8.43;5.90;;;22.60;99.90;;;;;;4915081;29;20035;-66
2022/06/24 03:05:41;;;;;;;9.25;6.20;;;22.60;99.90;;;;;;4914320;29;20028;-67
2022/06/24 03:08:09;;;;;;;12.00;6.45;;;22.60;99.90;;;;;;4914843;29;20035;-66
2022/06/24 03:10:35;;;;;;;9.70;5.85;;;22.50;99.90;;;;;;4914465;29;20032;-67
2022/06/24 03:13:01;;;;;;;8.50;5.95;;;22.50;99.90;;;;;;4917434;29;20388;-66
2022/06/24 03:15:28;;;;;;;11.05;6.53;;;22.60;99.90;;;;;;4918169;29;20115;-67
2022/06/24 03:17:54;;;;;;;9.35;6.18;;;22.50;99.90;;;;;;4963049;23;20142;-69
2022/06/24 03:20:20;;;;;;;13.07;6.78;;;22.50;99.90;;;;;;4955885;29;20102;-69
2022/06/24 03:22:46;;;;;;;12.98;7.53;;;22.60;99.90;;;;;;4956131;28;20361;-69
2022/06/24 03:25:12;;;;;;;12.20;7.25;;;22.60;99.90;;;;;;4956111;29;20039;-69
2022/06/24 03:27:38;;;;;;;11.73;7.68;;;22.60;99.90;;;;;;4955737;28;20034;-69
2022/06/24 03:30:06;;;;;;;11.80;7.00;;;22.60;99.90;;;;;;4955819;29;20039;-69
2022/06/24 03:32:32;;;;;;;10.02;6.80;;;22.60;99.90;;;;;;4955879;29;20031;-69
2022/06/24 03:34:58;;;;;;;12.18;6.85;;;22.50;99.90;;;;;;4955763;29;20039;-69
2022/06/24 03:37:24;;;;;;;14.80;7.20;;;22.60;99.90;;;;;;4955698;28;20027;-68
2022/06/24 03:39:50;;;;;;;10.77;6.22;;;22.50;99.90;;;;;;4955609;29;20042;-69
2022/06/24 03:42:16;;;;;;;11.52;6.50;;;22.60;99.90;;;;;;4955983;29;20070;-69
2022/06/24 03:44:42;;;;;;;10.48;6.07;;;22.60;99.90;;;;;;4955672;29;20082;-69
2022/06/24 03:47:08;;;;;;;9.93;5.65;;;22.60;99.90;;;;;;4955426;28;20484;-69
2022/06/24 03:49:34;;;;;;;9.65;5.38;;;22.50;99.90;;;;;;4955226;29;20049;-69
2022/06/24 03:52:00;;;;;;;11.85;5.88;;;22.50;99.90;;;;;;4956122;29;20314;-69
2022/06/24 03:54:26;;;;;;;9.90;6.20;;;22.50;99.90;;;;;;4955556;29;20028;-69
2022/06/24 03:56:52;;;;;;;10.65;6.13;;;22.50;99.90;;;;;;4955408;29;20034;-68
2022/06/24 03:59:18;;;;;;;12.45;6.22;;;22.50;99.90;;;;;;4955262;28;20031;-68
2022/06/24 04:01:44;;;;;;;10.27;6.47;;;22.50;99.90;;;;;;4955284;29;20039;-68
2022/06/24 04:04:10;;;;;;;13.68;6.55;;;22.40;99.90;;;;;;4955279;29;20481;-68
2022/06/24 04:06:36;;;;;;;11.93;6.60;;;22.40;99.90;;;;;;4955287;29;20039;-69
2022/06/24 04:09:02;;;;;;;10.30;6.35;;;22.40;99.90;;;;;;4955006;28;20023;-69
2022/06/24 04:11:28;;;;;;;11.73;7.30;;;22.40;99.90;;;;;;4955170;29;20024;-69
2022/06/24 04:13:54;;;;;;;10.55;6.57;;;22.40;99.90;;;;;;4955186;29;20396;-69
2022/06/24 04:16:20;;;;;;;8.30;6.75;;;22.30;99.90;;;;;;4954827;29;20023;-69
2022/06/24 04:18:48;;;;;;;10.73;6.57;;;22.40;99.90;;;;;;4954710;28;20073;-69
2022/06/24 04:21:16;;;;;;;9.82;6.95;;;22.30;99.90;;;;;;4955018;29;20079;-69
2022/06/24 04:23:43;;;;;;;10.45;6.55;;;22.20;99.90;;;;;;4955104;28;20098;-69
2022/06/24 04:26:09;;;;;;;9.32;6.38;;;22.20;99.90;;;;;;4955023;28;20502;-69
2022/06/24 04:28:35;;;;;;;8.93;6.32;;;22.20;99.90;;;;;;4954692;28;20102;-69
2022/06/24 04:31:02;;;;;;;12.45;6.88;;;22.20;99.90;;;;;;4954855;29;20023;-69
2022/06/24 04:33:28;;;;;;;10.30;7.28;;;22.20;99.90;;;;;;4954758;29;20035;-69
2022/06/24 04:35:54;;;;;;;9.30;6.93;;;22.20;99.90;;;;;;4954617;29;20046;-69
2022/06/24 04:38:20;;;;;;;7.45;5.82;;;22.20;99.90;;;;;;4954571;28;20030;-69
2022/06/24 04:40:46;;;;;;;9.50;7.00;;;22.20;99.90;;;;;;4954415;29;20113;-69
2022/06/24 04:43:12;;;;;;;8.43;6.53;;;22.20;99.90;;;;;;4954641;29;20504;-68
2022/06/24 04:45:38;;;;;;;8.68;6.13;;;22.20;99.90;;;;;;4954371;28;20030;-69
2022/06/24 04:48:05;;;;;;;9.98;5.88;;;22.20;99.90;;;;;;4954352;28;20488;-69
2022/06/24 04:50:31;;;;;;;9.23;5.47;;;22.20;99.90;;;;;;4954256;29;20289;-69
2022/06/24 04:52:57;;;;;;;9.00;5.30;;;22.20;99.90;;;;;;4954395;29;20492;-69
2022/06/24 04:55:23;;;;;;;7.00;5.20;;;22.20;99.90;;;;;;4954588;28;20027;-69
2022/06/24 04:57:49;;;;;;;8.45;5.57;;;22.10;99.90;;;;;;4954170;28;20035;-69
2022/06/24 05:00:15;;;;;;;7.47;4.80;;;22.20;99.90;;;;;;4954185;29;20031;-69
2022/06/24 05:02:41;;;;;;;9.25;5.22;;;22.10;99.90;;;;;;4954183;29;20059;-69
2022/06/24 05:05:09;;;;;;;10.25;5.40;;;22.10;99.90;;;;;;4954351;29;20027;-69
2022/06/24 05:07:35;;;;;;;7.90;5.97;;;22.10;99.90;;;;;;4953975;28;20043;-69
2022/06/24 05:10:01;;;;;;;7.18;4.97;;;22.10;99.90;;;;;;4952724;29;20027;-70
2022/06/24 05:12:27;;;;;;;7.20;5.00;;;22.10;99.90;;;;;;4954055;29;20074;-70
2022/06/24 05:14:53;;;;;;;7.35;4.40;;;22.10;99.90;;;;;;4953896;29;20495;-69
2022/06/24 05:17:18;;;;;;;7.72;4.13;;;22.10;99.90;;;;;;4953757;28;20031;-69
2022/06/24 05:19:44;;;;;;;5.82;4.07;;;22.10;99.90;;;;;;4953628;29;20481;-69
2022/06/24 05:22:10;;;;;;;8.02;3.78;;;22.10;99.90;;;;;;4953869;29;20484;-69
2022/06/24 05:24:36;;;;;;;6.18;3.78;;;22.00;99.90;;;;;;4952716;29;20122;-69
2022/06/24 05:27:03;;;;;;;6.50;4.65;;;22.10;99.90;;;;;;4953771;29;20050;-69
2022/06/24 05:29:28;;;;;;;7.53;4.82;;;22.10;99.90;;;;;;4953520;28;20027;-69
2022/06/24 05:31:54;;;;;;;7.90;3.83;;;22.10;99.90;;;;;;4952677;29;20392;-69
2022/06/24 05:34:20;;;;;;;6.22;3.60;;;22.10;99.90;;;;;;4953367;28;20023;-69
2022/06/24 05:36:46;;;;;;;5.40;3.80;;;22.00;99.90;;;;;;4953464;29;20059;-69
2022/06/24 05:39:13;;;;;;;7.15;4.40;;;22.00;99.90;;;;;;4953361;28;20038;-69
2022/06/24 05:41:41;;;;;;;4.57;3.38;;;22.00;99.90;;;;;;4953475;29;20122;-69
2022/06/24 05:44:08;;;;;;;4.63;3.58;;;22.00;99.90;;;;;;4952243;29;20050;-69
2022/06/24 05:46:34;;;;;;;4.60;3.35;;;22.00;99.90;;;;;;4953348;29;20031;-69
2022/06/24 05:49:00;;;;;;;5.63;3.40;;;21.90;99.90;;;;;;4953407;28;20030;-69
2022/06/24 05:51:26;;;;;;;5.60;3.30;;;21.90;99.90;;;;;;4953415;29;20432;-69
2022/06/24 05:56:37;;;;;;;4.68;3.45;;;21.90;99.90;;;;;;4953054;28;20101;-69
2022/06/24 05:59:04;;;;;;;5.35;3.38;;;21.90;99.90;;;;;;4953472;28;20035;-69
2022/06/24 06:01:30;;;;;;;5.47;3.30;;;21.90;99.90;;;;;;4951846;29;20560;-69
2022/06/24 06:03:56;;;;;;;5.15;2.80;;;21.80;99.90;;;;;;4953613;28;20036;-69
2022/06/24 06:06:23;;;;;;;4.63;3.60;;;21.90;99.90;;;;;;4953179;29;20031;-69
2022/06/24 06:08:49;;;;;;;5.57;3.55;;;21.80;99.90;;;;;;4952991;28;20090;-68
2022/06/24 06:11:17;;;;;;;8.43;3.38;;;21.80;99.90;;;;;;4953010;28;20468;-68
2022/06/24 06:13:45;;;;;;;5.22;3.25;;;21.80;99.90;;;;;;4953266;29;20033;-68
2022/06/24 06:16:11;;;;;;;6.05;3.55;;;21.90;99.90;;;;;;4952957;29;20031;-68
2022/06/24 06:18:38;;;;;;;5.93;3.60;;;21.90;99.90;;;;;;4952802;28;20035;-68
2022/06/24 06:21:06;;;;;;;4.82;3.50;;;21.90;99.90;;;;;;4953075;29;20027;-68
2022/06/24 06:23:33;;;;;;;5.70;3.50;;;21.90;99.90;;;;;;4952947;29;20035;-68
2022/06/24 06:26:03;;;;;;;7.43;4.00;;;22.00;99.90;;;;;;4951959;29;20039;-69
2022/06/24 06:28:29;;;;;;;7.35;4.03;;;21.90;99.90;;;;;;4953361;28;20694;-69
2022/06/24 06:30:55;;;;;;;7.68;3.97;;;21.90;99.90;;;;;;4953799;28;20066;-69
2022/06/24 06:33:21;;;;;;;4.95;3.22;;;21.90;99.90;;;;;;4953382;29;20062;-68
2022/06/24 06:35:47;;;;;;;5.40;3.28;;;21.90;99.90;;;;;;4952677;29;20429;-69
2022/06/24 06:38:13;;;;;;;4.60;3.03;;;21.80;99.90;;;;;;4952722;28;20024;-68
2022/06/24 06:40:39;;;;;;;5.75;2.80;;;21.80;99.90;;;;;;4952579;29;20035;-68
2022/06/24 06:43:06;;;;;;;6.45;3.33;;;21.70;99.90;;;;;;4953136;29;20301;-68
2022/06/24 06:45:33;;;;;;;7.40;3.97;;;21.70;99.90;;;;;;4952965;28;20031;-68
2022/06/24 06:47:58;;;;;;;6.63;3.28;;;21.60;99.90;;;;;;4955458;28;20035;-68
2022/06/24 06:50:24;;;;;;;3.90;2.28;;;21.60;99.90;;;;;;4956639;29;20126;-69
2022/06/24 06:52:50;;;;;;;4.13;2.33;;;21.60;99.90;;;;;;4956574;29;20027;-69
2022/06/24 06:55:16;;;;;;;8.57;2.53;;;21.50;99.90;;;;;;4956803;29;20027;-68
2022/06/24 06:57:42;;;;;;;3.70;2.70;;;21.50;99.90;;;;;;4956284;28;20023;-69
2022/06/24 07:00:09;;;;;;;7.05;2.83;;;21.50;99.90;;;;;;4956203;29;20031;-69
2022/06/24 07:02:36;;;;;;;4.68;2.50;;;21.50;99.90;;;;;;4956475;29;20067;-69
2022/06/24 07:05:03;;;;;;;5.30;2.83;;;21.50;99.90;;;;;;4956385;29;20036;-69
2022/06/24 07:07:28;;;;;;;7.32;2.55;;;21.40;99.90;;;;;;4956061;28;20031;-69
2022/06/24 07:09:54;;;;;;;6.53;2.50;;;21.50;99.90;;;;;;4955954;29;20031;-69
2022/06/24 07:12:21;;;;;;;6.10;2.60;;;21.40;99.90;;;;;;4956665;29;20507;-68
2022/06/24 07:14:47;;;;;;;5.25;2.60;;;21.30;99.90;;;;;;4956144;29;20169;-69
2022/06/24 07:17:14;;;;;;;4.75;3.00;;;21.30;99.90;;;;;;4955870;28;20492;-68
2022/06/24 07:19:40;;;;;;;5.88;2.95;;;21.30;99.90;;;;;;4954665;29;20118;-68
2022/06/24 07:22:05;;;;;;;6.78;2.85;;;21.20;99.90;;;;;;4956043;29;20086;-68
2022/06/24 07:24:32;;;;;;;6.13;3.03;;;21.20;99.90;;;;;;4956072;29;20056;-69
2022/06/24 07:27:01;;;;;;;9.38;6.88;;;21.20;99.90;;;;;;4956145;29;20077;-68
2022/06/24 07:29:26;;;;;;;;;;;21.20;99.90;;;;;;4956026;28;20163;-69
2022/06/24 07:31:52;;;;;;;7.88;5.07;;;21.10;99.90;;;;;;4955825;29;19989;-68
2022/06/24 07:34:18;;;;;;;7.72;4.32;;;21.10;99.90;;;;;;4955857;29;20054;-68
2022/06/24 07:36:44;;;;;;;8.68;5.30;;;21.10;99.90;;;;;;4955674;29;20448;-69
2022/06/24 07:39:10;;;;;;;5.70;4.32;;;21.10;99.90;;;;;;4955789;28;20034;-69
2022/06/24 07:41:36;;;;;;;8.70;5.57;;;21.10;99.90;;;;;;4955757;29;20043;-69
2022/06/24 07:44:02;;;;;;;9.05;6.38;;;21.10;99.90;;;;;;4955970;28;20027;-69
2022/06/24 07:46:28;;;;;;;7.20;5.00;;;21.10;99.90;;;;;;4955621;29;20041;-69
2022/06/24 07:48:55;;;;;;;7.65;5.75;;;21.10;99.90;;;;;;4955425;28;20031;-69
2022/06/24 07:51:21;;;;;;;9.52;5.63;;;21.20;99.90;;;;;;4955402;29;20034;-69
2022/06/24 07:53:48;;;;;;;11.65;6.25;;;21.20;99.90;;;;;;4955394;29;20027;-69
2022/06/24 07:58:59;;;;;;;7.63;4.40;;;21.10;99.90;;;;;;4954776;28;20031;-69
2022/06/24 08:01:25;;;;;;;6.18;3.45;;;21.10;99.90;;;;;;4955211;29;20086;-69
2022/06/24 08:03:51;;;;;;;6.15;2.92;;;21.00;99.90;;;;;;4955238;29;20035;-69
2022/06/24 08:06:17;;;;;;;4.82;2.80;;;21.00;99.90;;;;;;4955071;29;20086;-69
2022/06/24 08:08:43;;;;;;;5.78;3.50;;;20.90;99.90;;;;;;4955088;28;20485;-69
2022/06/24 08:11:09;;;;;;;5.15;2.70;;;20.90;99.90;;;;;;4955133;29;20086;-69
2022/06/24 08:13:35;;;;;;;6.95;3.30;;;20.90;99.90;;;;;;4955034;29;20031;-69
2022/06/24 08:16:01;;;;;;;5.47;2.90;;;20.80;99.90;;;;;;4954848;29;20074;-69
2022/06/24 08:18:27;;;;;;;6.68;3.15;;;20.80;99.90;;;;;;4954980;28;20452;-69
2022/06/24 08:20:53;;;;;;;5.38;3.40;;;20.80;99.90;;;;;;4954767;29;20074;-69
2022/06/24 08:23:19;;;;;;;5.85;3.47;;;20.90;99.90;;;;;;4953923;29;20051;-69
2022/06/24 08:25:45;;;;;;;6.70;3.47;;;20.90;99.90;;;;;;4955081;29;20085;-69
2022/06/24 08:28:15;;;;;;;8.27;4.20;;;20.90;99.90;;;;;;4954664;28;20055;-69
2022/06/24 08:30:41;;;;;;;5.38;3.38;;;20.90;99.90;;;;;;4954475;29;20035;-68
2022/06/24 08:33:07;;;;;;;6.30;2.97;;;20.90;99.90;;;;;;4954750;29;20058;-69
2022/06/24 08:35:33;;;;;;;7.78;3.70;;;20.90;99.90;;;;;;4954732;29;20031;-69
2022/06/24 08:37:59;;;;;;;6.75;3.78;;;20.90;99.90;;;;;;4954661;28;20027;-68
2022/06/24 08:40:27;;;;;;;7.07;3.58;;;20.90;99.90;;;;;;4954466;28;20595;-69
2022/06/24 08:42:55;;;;;;;6.13;3.50;;;20.90;99.90;;;;;;4954590;29;20050;-69
2022/06/24 08:45:23;;;;;;;7.45;3.70;;;20.90;99.90;;;;;;4953384;29;20078;-69
2022/06/24 08:47:49;;;;;;;6.90;3.75;;;20.90;99.90;;;;;;4954426;28;20374;-69
2022/06/24 08:50:16;;;;;;;6.53;3.47;;;21.00;99.90;;;;;;4954333;29;20058;-70
2022/06/24 08:52:53;;;;;;;5.43;3.20;;;21.00;99.90;;;;;;4954693;28;20031;-69
2022/06/24 08:55:20;;;;;;;7.68;3.10;;;21.00;99.90;;;;;;4954398;29;20078;-69
2022/06/24 08:57:46;;;;;;;6.10;3.30;;;21.00;99.90;;;;;;4954869;28;20027;-69
2022/06/24 09:00:13;;;;;;;4.75;2.95;;;21.00;99.90;;;;;;4954248;29;20027;-69
2022/06/24 09:02:40;;;;;;;5.72;3.10;;;21.10;99.90;;;;;;4953008;29;20027;-69
2022/06/24 09:05:10;;;;;;;10.15;3.00;;;21.10;99.90;;;;;;4954083;29;20059;-69
2022/06/24 09:07:37;;;;;;;4.72;3.05;;;21.10;99.90;;;;;;4954141;28;20035;-69
2022/06/24 09:10:12;;;;;;;6.60;2.85;;;21.10;99.90;;;;;;4953201;28;20042;-69
2022/06/24 09:12:40;;;;;;;6.80;2.63;;;21.20;99.90;;;;;;4954094;29;20077;-69
2022/06/24 09:15:09;;;;;;;6.82;2.97;;;21.20;99.90;;;;;;4952834;29;20028;-69
2022/06/24 09:17:37;;;;;;;7.68;2.80;;;21.10;99.90;;;;;;4967920;23;20130;-65
2022/06/24 09:20:13;;;;;;;5.05;2.30;;;21.20;99.90;;;;;;4954180;29;20055;-65
2022/06/24 09:22:40;;;;;;;5.70;3.08;;;21.20;99.90;;;;;;4954108;28;20042;-64
2022/06/24 09:25:07;;;;;;;4.50;2.50;;;21.20;99.90;;;;;;4954023;29;20069;-64
2022/06/24 09:27:35;;;;;;;5.20;2.75;;;21.10;99.90;;;;;;4953853;28;20078;-64
2022/06/24 09:30:01;;;;;;;7.40;2.97;;;21.20;99.90;;;;;;4952524;29;20428;-62
2022/06/24 09:32:28;;;;;;;6.25;3.08;;;21.20;99.90;;;;;;4953975;29;20271;-62
2022/06/24 09:35:07;;;;;;;5.63;2.50;;;21.20;99.90;;;;;;4954059;28;20023;-65
2022/06/24 09:37:52;;;;;;;4.25;2.53;;;21.20;99.90;;;;;;4952778;28;20031;-65
2022/06/24 09:40:26;;;;;;;4.40;2.70;;;21.30;99.90;;;;;;4953997;28;20034;-65
2022/06/24 09:43:02;;;;;;;6.47;3.05;;;21.40;99.90;;;;;;4953734;29;20062;-65
2022/06/24 09:45:46;;;;;;;8.23;3.33;;;21.40;99.90;;;;;;4953857;29;20042;-65
2022/06/24 09:48:41;;;;;;;4.93;2.80;;;21.40;99.90;;;;;;4953428;28;20031;-64
2022/06/24 09:51:08;;;;;;;5.57;3.30;;;21.50;99.90;;;;;;4944116;29;20119;-65
2022/06/24 09:53:36;;;;;;;7.13;3.58;;;21.50;99.90;;;;;;4953558;29;20029;-65
2022/06/24 09:56:07;;;;;;;7.72;3.80;;;21.50;99.90;;;;;;4953561;29;20023;-65
2022/06/24 09:58:38;;;;;;;5.15;3.53;;;21.60;99.90;;;;;;4953157;28;20051;-65
2022/06/24 10:01:04;;;;;;;5.72;3.47;;;21.60;99.90;;;;;;4953721;28;20034;-65
2022/06/24 10:03:32;;;;;;;6.50;3.28;;;21.70;99.90;;;;;;4953990;29;20019;-65
2022/06/24 10:06:02;;;;;;;8.45;3.90;;;21.80;99.90;;;;;;4953689;29;20109;-65
2022/06/24 10:08:33;;;;;;;6.15;4.15;;;21.90;99.90;;;;;;4953669;28;20031;-65
2022/06/24 10:11:00;;;;;;;7.18;4.35;;;21.90;99.90;;;;;;4953679;28;20035;-64
2022/06/24 10:13:34;;;;;;;8.63;4.03;;;21.90;99.90;;;;;;4953883;29;20106;-65
2022/06/24 10:16:03;;;;;;;7.35;4.10;;;22.00;99.90;;;;;;4953572;29;20038;-66
2022/06/24 10:18:32;;;;;;;;;;;22.10;99.90;;;;;;4953896;28;20039;-64
2022/06/24 10:21:04;;;;;;;8.35;5.30;;;22.20;99.90;;;;;;4952195;28;19965;-64
2022/06/24 10:23:45;;;;;;;8.65;4.60;;;22.30;99.90;;;;;;4951759;29;20446;-65
2022/06/24 10:26:30;;;;;;;9.25;6.15;;;22.40;99.90;;;;;;4953392;28;20035;-65
2022/06/24 10:29:05;;;;;;;9.25;6.05;;;22.50;99.90;;;;;;4952877;28;20035;-64
2022/06/24 10:31:44;;;;;;;7.18;4.60;;;22.50;99.90;;;;;;4953121;29;20042;-64
2022/06/24 10:34:25;;;;;;;;;;;22.60;99.90;;;;;;4953432;29;20075;-65
2022/06/24 10:36:54;;;;;;;7.40;4.95;;;22.60;99.90;;;;;;4952872;29;20409;-64
2022/06/24 10:39:22;;;;;;;7.70;4.25;;;22.60;99.90;;;;;;4952764;28;20066;-64
2022/06/24 10:42:04;;;;;;;10.88;5.35;;;22.60;99.90;;;;;;4952984;29;20058;-65
2022/06/24 10:44:32;;;;;;;7.47;4.97;;;22.60;99.90;;;;;;4952914;29;20050;-65
2022/06/24 10:47:10;;;;;;;5.38;3.63;;;22.70;99.90;;;;;;4953110;29;20035;-62
2022/06/24 10:50:09;;;;;;;4.20;3.10;;;22.70;99.90;;;;;;4952867;29;20039;-62
2022/06/24 10:52:38;;;;;;;4.57;3.72;;;22.70;99.90;;;;;;4952886;29;20036;-62
2022/06/24 10:55:34;;;;;;;7.97;4.45;;;22.70;99.90;;;;;;4952794;28;20023;-62
2022/06/24 10:58:10;;;;;;;5.57;4.07;;;22.80;99.90;;;;;;4952695;28;20567;-62
2022/06/24 11:00:59;;;;;;;5.63;3.58;;;22.80;99.90;;;;;;4952727;29;20035;-62
2022/06/24 11:03:35;;;;;;;7.20;3.90;;;22.80;99.90;;;;;;4952658;29;20054;-62
2022/06/24 11:06:01;;;;;;;5.00;3.50;;;22.80;99.90;;;;;;4952759;29;20031;-62
2022/06/24 11:08:28;;;;;;;5.15;3.38;;;22.80;99.90;;;;;;4951470;28;20507;-62
2022/06/24 11:10:54;;;;;;;5.60;3.30;;;22.70;99.90;;;;;;4952959;29;20465;-62
2022/06/24 11:13:23;;;;;;;5.65;3.67;;;22.80;99.90;;;;;;4953278;29;20039;-62
2022/06/24 11:15:55;;;;;;;4.53;3.22;;;22.80;99.90;;;;;;4951577;29;20024;-62
2022/06/24 11:18:32;;;;;;;5.32;3.45;;;22.80;99.90;;;;;;4952529;28;20042;-64
2022/06/24 11:21:01;;;;;;;4.50;3.08;;;22.90;99.90;;;;;;4952693;29;20063;-64
2022/06/24 11:23:40;;;;;;;5.82;3.70;;;22.90;99.90;;;;;;4952643;29;20384;-65
2022/06/24 11:26:18;;;;;;;6.28;3.53;;;22.90;99.90;;;;;;4952452;29;20086;-65
2022/06/24 11:28:52;;;;;;;4.03;3.10;;;23.00;99.90;;;;;;4952522;28;20027;-64
2022/06/24 11:31:26;;;;;;;4.18;3.20;;;23.00;99.90;;;;;;4952488;29;20023;-65
2022/06/24 11:34:08;;;;;;;5.30;3.05;;;23.10;99.90;;;;;;4953909;28;20424;-65
2022/06/24 11:36:36;;;;;;;5.15;3.35;;;23.10;99.90;;;;;;4955881;29;20090;-64
2022/06/24 11:39:07;;;;;;;5.57;3.63;;;23.20;99.90;;;;;;4955899;28;20036;-64
2022/06/24 11:41:36;;;;;;;5.82;3.63;;;23.20;99.90;;;;;;4955883;28;20035;-65
2022/06/24 11:44:02;;;;;;;5.28;3.10;;;23.20;99.90;;;;;;4956026;29;20506;-62
2022/06/24 11:46:29;;;;;;;6.85;3.33;;;23.20;99.90;;;;;;4955686;28;20042;-62
2022/06/24 11:49:14;;;;;;;5.75;3.83;;;23.20;99.90;;;;;;4955615;28;20027;-61
2022/06/24 11:51:44;;;;;;;6.10;3.03;;;23.20;99.90;;;;;;4955791;29;20110;-61
2022/06/24 11:54:11;;;;;;;4.95;3.30;;;23.30;99.90;;;;;;4955648;29;20127;-62
2022/06/24 11:56:42;;;;;;;5.82;3.40;;;23.30;99.90;;;;;;4955496;29;20029;-62
2022/06/24 11:59:11;;;;;;;5.15;3.60;;;23.30;99.90;;;;;;4955421;28;20090;-63
2022/06/24 12:01:38;;;;;;;7.13;3.60;;;23.30;99.90;;;;;;4954441;29;20039;-62
2022/06/24 12:04:11;;;;;;;7.68;4.22;;;23.40;99.90;;;;;;4955904;29;20031;-63
2022/06/24 12:06:38;;;;;;;7.43;4.63;;;23.50;99.90;;;;;;4955527;29;20480;-63
2022/06/24 12:09:05;;;;;;;7.47;4.00;;;23.60;99.90;;;;;;4955220;28;20101;-62
2022/06/24 12:11:37;;;;;;;6.00;4.05;;;23.50;99.90;;;;;;4955267;29;20035;-62
2022/06/24 12:14:08;;;;;;;6.35;3.58;;;23.60;99.80;;;;;;4954054;29;20058;-62
2022/06/24 12:16:55;;;;;;;6.43;3.78;;;23.80;99.90;;;;;;4955195;28;20035;-62
2022/06/24 12:19:30;;;;;;;6.47;4.20;;;23.90;99.90;;;;;;4955069;28;20062;-62
2022/06/24 12:22:06;;;;;;;6.20;4.10;;;24.00;99.90;;;;;;4955239;29;20047;-63
2022/06/24 12:24:32;;;;;;;5.47;3.50;;;24.20;99.90;;;;;;4955019;29;20036;-63
2022/06/24 12:27:02;;;;;;;6.03;3.42;;;24.30;99.70;;;;;;4955011;29;20505;-63
2022/06/24 12:29:39;;;;;;;5.97;4.07;;;24.30;98.70;;;;;;4954783;28;20035;-61
2022/06/24 12:32:06;;;;;;;4.70;3.22;;;24.40;97.30;;;;;;4954984;29;20381;-64
2022/06/24 12:34:39;;;;;;;5.72;3.33;;;24.50;97.60;;;;;;4955004;29;20037;-66
2022/06/24 12:37:13;;;;;;;8.48;5.40;;;24.60;98.20;;;;;;4954832;29;20061;-61
2022/06/24 12:39:47;;;;;;;5.80;3.63;;;24.60;97.30;;;;;;4955200;29;20110;-62
2022/06/24 12:42:18;;;;;;;8.48;6.65;;;24.60;96.60;;;;;;4954920;29;20034;-62
2022/06/24 12:44:51;;;;;;;8.55;6.47;;;24.60;97.40;;;;;;4953624;28;20028;-66
2022/06/24 12:53:07;;;;;;;5.38;4.40;;;24.70;97.40;;;;;;4953888;29;20539;-64
2022/06/24 12:55:34;;;;;;;7.07;3.95;;;24.70;97.50;;;;;;4954952;29;20417;-63
2022/06/24 12:58:01;;;;;;;9.88;4.70;;;24.90;97.20;;;;;;4954580;28;20576;-63
2022/06/24 13:00:28;;;;;;;6.07;4.15;;;25.10;97.20;;;;;;4954833;29;20443;-63
2022/06/24 13:02:56;;;;;;;5.25;3.90;;;25.20;97.20;;;;;;4955003;28;20062;-62
2022/06/24 13:05:25;;;;;;;4.60;3.40;;;25.30;96.80;;;;;;4954600;29;20381;-63
2022/06/24 13:07:51;;;;;;;5.82;3.97;;;25.30;96.70;;;;;;4954346;28;20027;-62